createdAt,value
2019-05-17T00:00:21.709Z,51.00
2019-05-17T00:02:49.208Z,51.00
2019-05-17T00:05:17.727Z,51.00
2019-05-17T00:07:47.579Z,51.10
2019-05-17T00:10:17.033Z,51.10
2019-05-17T00:12:44.273Z,51.10
2019-05-17T00:15:13.311Z,51.20
2019-05-17T00:17:41.534Z,51.20
2019-05-17T00:20:09.434Z,51.30
2019-05-17T00:22:36.919Z,51.20
2019-05-17T00:25:07.135Z,51.20
2019-05-17T00:27:34.126Z,51.90
2019-05-17T00:30:01.714Z,51.40
2019-05-17T00:32:29.272Z,52.20
2019-05-17T00:34:56.841Z,51.40
2019-05-17T00:37:26.324Z,51.40
2019-05-17T00:39:53.713Z,51.40
2019-05-17T00:42:21.261Z,51.40
2019-05-17T00:44:48.896Z,52.10
2019-05-17T00:47:17.112Z,51.70
2019-05-17T00:49:46.446Z,51.50
2019-05-17T00:52:13.990Z,51.50
2019-05-17T00:54:41.363Z,51.50
2019-05-17T00:57:08.863Z,51.50
2019-05-17T00:59:36.882Z,51.70
2019-05-17T01:02:06.783Z,51.60
2019-05-17T01:04:33.685Z,51.80
2019-05-17T01:07:01.151Z,51.70
2019-05-17T01:09:28.521Z,50.20
2019-05-17T01:11:56.689Z,51.80
2019-05-17T01:14:26.460Z,51.80
2019-05-17T01:16:53.569Z,51.80
2019-05-17T01:19:21.002Z,51.90
2019-05-17T01:21:48.417Z,51.90
2019-05-17T01:24:17.292Z,51.90
2019-05-17T01:26:46.876Z,52.00
2019-05-17T01:29:14.300Z,52.00
2019-05-17T01:31:41.770Z,52.10
2019-05-17T01:34:09.174Z,52.10
2019-05-17T01:36:37.071Z,52.10
2019-05-17T01:39:15.175Z,52.10
2019-05-17T01:41:34.236Z,52.10
2019-05-17T01:44:01.647Z,52.10
2019-05-17T01:46:29.146Z,52.00
2019-05-17T01:48:57.781Z,52.10
2019-05-17T01:51:26.320Z,53.10
2019-05-17T01:53:53.811Z,52.00
2019-05-17T01:56:21.236Z,52.20
2019-05-17T01:58:48.616Z,52.10
2019-05-17T02:01:17.003Z,52.10
2019-05-17T02:03:46.771Z,52.20
2019-05-17T02:06:16.390Z,52.20
2019-05-17T02:08:43.226Z,52.60
2019-05-17T02:11:10.683Z,52.30
2019-05-17T02:13:38.125Z,52.20
2019-05-17T02:16:07.178Z,52.30
2019-05-17T02:18:37.034Z,52.30
2019-05-17T02:21:06.374Z,52.30
2019-05-17T02:23:33.251Z,52.30
2019-05-17T02:26:01.028Z,52.30
2019-05-17T02:28:29.346Z,52.30
2019-05-17T02:30:56.855Z,52.30
2019-05-17T02:33:24.533Z,52.30
2019-05-17T02:35:53.638Z,52.40
2019-05-17T02:38:22.484Z,52.30
2019-05-17T02:40:53.251Z,52.40
2019-05-17T02:43:19.377Z,52.30
2019-05-17T02:45:46.769Z,52.30
2019-05-17T02:48:14.237Z,52.20
2019-05-17T02:50:43.650Z,52.20
2019-05-17T02:53:13.243Z,52.30
2019-05-17T02:55:43.571Z,52.30
2019-05-17T02:58:12.634Z,52.30
2019-05-17T03:00:39.428Z,52.30
2019-05-17T03:03:06.905Z,52.30
2019-05-17T03:05:34.392Z,52.30
2019-05-17T03:08:04.236Z,52.30
2019-05-17T03:10:33.468Z,52.40
2019-05-17T03:13:03.629Z,52.40
2019-05-17T03:15:32.204Z,52.50
2019-05-17T03:17:58.779Z,52.50
2019-05-17T03:20:26.238Z,52.60
2019-05-17T03:22:53.733Z,52.70
2019-05-17T03:25:23.948Z,52.80
2019-05-17T03:27:53.367Z,52.60
2019-05-17T03:30:25.281Z,52.70
2019-05-17T03:32:55.526Z,52.90
2019-05-17T03:35:18.927Z,52.80
2019-05-17T03:37:46.390Z,52.90
2019-05-17T03:40:30.610Z,52.90
2019-05-17T03:42:43.421Z,52.90
2019-05-17T03:45:13.785Z,53.00
2019-05-17T03:47:43.910Z,53.00
2019-05-17T03:50:13.094Z,53.00
2019-05-17T03:52:39.010Z,53.10
2019-05-17T03:55:06.595Z,53.10
2019-05-17T03:57:34.116Z,53.10
2019-05-17T04:00:03.956Z,53.20
2019-05-17T04:02:32.697Z,53.10
2019-05-17T04:05:03.946Z,53.10
2019-05-17T04:07:32.246Z,53.10
2019-05-17T04:10:04.162Z,53.10
2019-05-17T04:12:29.130Z,53.10
2019-05-17T04:14:56.529Z,53.10
2019-05-17T04:17:23.996Z,53.10
2019-05-17T04:19:53.296Z,53.10
2019-05-17T04:22:23.617Z,53.00
2019-05-17T04:24:52.542Z,53.20
2019-05-17T04:27:22.777Z,53.10
2019-05-17T04:29:48.716Z,53.10
2019-05-17T04:32:16.126Z,53.20
2019-05-17T04:34:43.885Z,53.20
2019-05-17T04:37:13.031Z,53.20
2019-05-17T04:39:42.913Z,53.20
2019-05-17T04:42:13.342Z,53.30
2019-05-17T04:44:39.262Z,53.30
2019-05-17T04:47:06.877Z,53.40
2019-05-17T04:49:34.228Z,53.40
2019-05-17T04:52:03.491Z,53.50
2019-05-17T04:54:33.410Z,53.70
2019-05-17T04:57:02.632Z,53.70
2019-05-17T04:59:33.372Z,53.90
2019-05-17T05:01:59.066Z,53.90
2019-05-17T05:04:26.491Z,53.90
2019-05-17T05:06:53.981Z,54.00
2019-05-17T05:09:23.090Z,54.10
2019-05-17T05:12:00.373Z,54.10
2019-05-17T05:14:23.171Z,54.30
2019-05-17T05:16:49.306Z,54.20
2019-05-17T05:19:16.756Z,54.30
2019-05-17T05:21:44.202Z,54.40
2019-05-17T05:24:11.700Z,54.60
2019-05-17T05:26:39.340Z,54.60
2019-05-17T05:29:06.818Z,54.90
2019-05-17T05:31:34.294Z,55.00
2019-05-17T05:34:21.584Z,55.10
2019-05-17T05:36:49.265Z,54.90
2019-05-17T05:39:41.445Z,55.00
2019-05-17T05:42:28.729Z,55.10
2019-05-17T05:44:56.271Z,53.70
2019-05-17T05:47:29.043Z,55.20
2019-05-17T05:49:56.430Z,55.10
2019-05-17T05:52:23.869Z,55.20
2019-05-17T05:54:52.054Z,55.10
2019-05-17T05:57:22.119Z,53.90
2019-05-17T06:00:09.165Z,55.20
2019-05-17T06:02:56.112Z,55.20
2019-05-17T06:05:32.493Z,55.20
2019-05-17T06:08:00.007Z,55.40
2019-05-17T06:10:33.012Z,55.50
2019-05-17T06:13:02.974Z,55.60
2019-05-17T06:15:51.757Z,55.60
2019-05-17T06:18:19.300Z,54.70
2019-05-17T06:20:46.789Z,55.90
2019-05-17T06:23:16.439Z,56.00
2019-05-17T06:25:44.018Z,55.90
2019-05-17T06:28:11.623Z,55.80
2019-05-17T06:30:39.195Z,55.90
2019-05-17T06:33:06.584Z,56.00
2019-05-17T06:35:34.118Z,56.00
2019-05-17T06:38:01.895Z,56.10
2019-05-17T06:40:29.539Z,56.20
2019-05-17T06:42:56.874Z,56.20
2019-05-17T06:45:24.398Z,56.30
2019-05-17T06:47:51.946Z,56.30
2019-05-17T06:50:19.422Z,56.40
2019-05-17T06:52:46.845Z,56.30
2019-05-17T06:55:16.184Z,56.20
2019-05-17T06:57:43.785Z,55.20
2019-05-17T07:00:19.849Z,56.40
2019-05-17T07:02:41.873Z,56.20
2019-05-17T07:05:12.323Z,56.30
2019-05-17T07:07:40.544Z,56.10
2019-05-17T07:10:11.016Z,56.00
2019-05-17T07:12:53.807Z,55.80
2019-05-17T07:15:07.403Z,55.70
2019-05-17T07:17:34.888Z,55.70
2019-05-17T07:20:41.298Z,55.60
2019-05-17T07:26:51.489Z,55.60
2019-05-17T07:29:19.357Z,55.40
2019-05-17T07:31:46.982Z,55.50
2019-05-17T07:34:21.792Z,55.40
2019-05-17T07:36:50.342Z,55.40
2019-05-17T07:39:20.457Z,55.40
2019-05-17T07:41:49.391Z,55.40
2019-05-17T07:44:16.940Z,55.20
2019-05-17T07:46:44.318Z,55.20
2019-05-17T07:49:11.738Z,55.10
2019-05-17T07:51:39.582Z,55.20
2019-05-17T07:54:07.300Z,55.30
2019-05-17T07:56:34.745Z,55.10
2019-05-17T07:59:02.838Z,54.90
2019-05-17T08:01:30.340Z,54.60
2019-05-17T08:04:01.005Z,54.60
2019-05-17T08:06:30.563Z,54.90
2019-05-17T08:09:01.295Z,54.80
2019-05-17T08:11:27.265Z,54.70
2019-05-17T08:13:54.627Z,54.50
2019-05-17T08:16:22.199Z,54.40
2019-05-17T08:18:49.809Z,54.30
2019-05-17T08:21:19.720Z,53.90
2019-05-17T08:23:46.627Z,53.50
2019-05-17T08:26:14.192Z,53.20
2019-05-17T08:28:41.649Z,53.00
2019-05-17T08:31:09.935Z,52.90
2019-05-17T08:33:37.657Z,52.70
2019-05-17T08:36:05.041Z,52.70
2019-05-17T08:38:32.513Z,52.30
2019-05-17T08:41:00.744Z,52.30
2019-05-17T08:43:40.911Z,51.90
2019-05-17T08:45:59.307Z,51.80
2019-05-17T08:48:26.983Z,51.60
2019-05-17T08:50:54.444Z,51.50
2019-05-17T08:53:21.940Z,51.30
2019-05-17T08:55:50.107Z,51.00
2019-05-17T08:58:21.296Z,50.90
2019-05-17T09:00:47.647Z,50.60
2019-05-17T09:03:15.181Z,50.50
2019-05-17T09:05:42.626Z,50.90
2019-05-17T09:08:10.637Z,51.10
2019-05-17T09:10:40.487Z,51.20
2019-05-17T09:13:12.448Z,52.00
2019-05-17T09:15:39.938Z,52.60
2019-05-17T09:18:09.772Z,53.20
2019-05-17T09:20:37.012Z,54.40
2019-05-17T09:23:04.586Z,54.40
2019-05-17T09:25:32.149Z,54.20
2019-05-17T09:28:00.725Z,52.30
2019-05-17T09:30:31.168Z,51.40
2019-05-17T09:33:00.131Z,49.80
2019-05-17T09:35:27.100Z,47.80
2019-05-17T09:37:54.702Z,46.00
2019-05-17T09:40:22.157Z,43.60
2019-05-17T09:42:50.044Z,40.70
2019-05-17T09:45:20.124Z,39.00
2019-05-17T09:47:50.482Z,36.20
2019-05-17T09:50:19.942Z,33.50
2019-05-17T09:52:49.250Z,31.30
2019-05-17T09:55:16.646Z,29.40
2019-05-17T09:57:44.023Z,28.20
2019-05-17T10:00:11.552Z,27.10
2019-05-17T10:02:40.176Z,26.10
2019-05-17T10:05:10.738Z,24.90
2019-05-17T10:07:40.224Z,23.50
2019-05-17T10:10:10.125Z,21.90
2019-05-17T10:12:36.782Z,22.40
2019-05-17T10:15:05.287Z,21.70
2019-05-17T10:17:32.660Z,21.10
2019-05-17T10:20:00.137Z,20.20
2019-05-17T10:22:27.483Z,19.50
2019-05-17T10:24:54.950Z,18.80
2019-05-17T10:27:22.369Z,18.30
2019-05-17T10:29:50.222Z,18.00
2019-05-17T10:32:20.306Z,17.70
2019-05-17T10:34:49.738Z,17.80
2019-05-17T10:37:20.137Z,17.90
2019-05-17T10:39:50.232Z,18.10
2019-05-17T10:42:20.737Z,18.40
2019-05-17T10:44:50.499Z,18.60
2019-05-17T10:47:19.515Z,19.00
2019-05-17T10:49:46.623Z,19.40
2019-05-17T10:52:14.200Z,19.70
2019-05-17T10:54:41.714Z,20.20
2019-05-17T10:57:10.477Z,21.30
2019-05-17T11:02:50.348Z,21.90
2019-05-17T11:05:19.934Z,22.20
2019-05-17T11:07:50.664Z,22.60
2019-05-17T11:10:19.432Z,23.00
2019-05-17T11:12:47.010Z,23.40
2019-05-17T11:15:14.568Z,23.60
2019-05-17T11:17:42.099Z,24.00
2019-05-17T11:20:09.751Z,24.40
2019-05-17T11:22:37.485Z,24.80
2019-05-17T11:25:05.630Z,25.10
2019-05-17T11:27:33.109Z,24.90
2019-05-17T11:30:00.510Z,25.00
2019-05-17T11:32:27.980Z,25.50
2019-05-17T11:34:55.448Z,26.10
2019-05-17T11:37:22.969Z,26.30
2019-05-17T11:39:50.387Z,26.80
2019-05-17T11:42:17.735Z,26.90
2019-05-17T11:44:45.158Z,27.20
2019-05-17T11:47:12.701Z,27.50
2019-05-17T11:49:40.187Z,27.80
2019-05-17T11:52:07.511Z,27.80
2019-05-17T11:54:34.957Z,28.10
2019-05-17T11:57:02.439Z,28.00
2019-05-17T11:59:29.985Z,28.30
2019-05-17T12:01:59.241Z,28.40
2019-05-17T12:04:26.624Z,28.50
2019-05-17T12:06:54.052Z,28.70
2019-05-17T12:09:35.189Z,29.00
2019-05-17T12:11:50.991Z,29.00
2019-05-17T12:14:18.382Z,28.80
2019-05-17T12:16:45.824Z,28.90
2019-05-17T12:19:13.239Z,29.20
2019-05-17T12:21:40.714Z,29.30
2019-05-17T12:24:08.190Z,29.40
2019-05-17T12:26:35.715Z,29.60
2019-05-17T12:29:03.327Z,29.30
2019-05-17T12:31:30.843Z,29.20
2019-05-17T12:33:58.388Z,29.30
2019-05-17T12:36:26.006Z,29.30
2019-05-17T12:38:53.422Z,28.70
2019-05-17T12:41:20.954Z,29.50
2019-05-17T12:43:48.365Z,29.40
2019-05-17T12:46:15.814Z,29.50
2019-05-17T12:48:45.981Z,29.80
2019-05-17T12:51:13.353Z,29.70
2019-05-17T12:53:40.888Z,29.80
2019-05-17T12:56:08.334Z,29.60
2019-05-17T12:58:35.909Z,29.80
2019-05-17T13:01:03.478Z,30.00
2019-05-17T13:03:30.910Z,29.70
2019-05-17T13:05:58.337Z,29.60
2019-05-17T13:08:25.792Z,29.60
2019-05-17T13:10:53.198Z,29.70
2019-05-17T13:13:20.873Z,29.70
2019-05-17T13:15:48.350Z,29.80
2019-05-17T13:18:15.789Z,30.40
2019-05-17T13:20:43.124Z,29.80
2019-05-17T13:23:10.392Z,30.00
2019-05-17T13:25:37.960Z,29.80
2019-05-17T13:28:07.186Z,29.80
2019-05-17T13:30:34.873Z,30.20
2019-05-17T13:33:02.299Z,29.80
2019-05-17T13:35:29.769Z,29.80
2019-05-17T13:37:57.170Z,28.30
2019-05-17T13:40:24.646Z,29.20
2019-05-17T13:42:52.091Z,29.20
2019-05-17T13:45:19.427Z,29.10
2019-05-17T13:47:48.041Z,29.20
2019-05-17T13:50:15.540Z,29.20
2019-05-17T13:52:43.043Z,29.30
2019-05-17T13:55:29.933Z,29.20
2019-05-17T13:57:57.366Z,29.10
2019-05-17T14:00:25.029Z,29.40
2019-05-17T14:02:52.730Z,29.60
2019-05-17T14:05:22.147Z,29.60
2019-05-17T14:07:49.618Z,29.70
2019-05-17T14:10:26.786Z,29.90
2019-05-17T14:12:46.444Z,29.80
2019-05-17T14:15:14.569Z,29.70
2019-05-17T14:17:41.935Z,30.00
2019-05-17T14:20:09.440Z,29.50
2019-05-17T14:22:36.898Z,29.40
2019-05-17T14:25:04.584Z,29.40
2019-05-17T14:27:32.167Z,29.30
2019-05-17T14:29:59.569Z,28.60
2019-05-17T14:32:27.239Z,29.40
2019-05-17T14:34:54.626Z,29.70
2019-05-17T14:37:22.172Z,29.60
2019-05-17T14:39:49.635Z,29.90
2019-05-17T14:42:17.164Z,29.80
2019-05-17T14:44:44.701Z,29.90
2019-05-17T14:47:12.195Z,30.00
2019-05-17T14:49:39.701Z,30.20
2019-05-17T14:52:07.297Z,30.20
2019-05-17T14:54:34.796Z,30.40
2019-05-17T14:57:02.275Z,30.50
2019-05-17T14:59:29.887Z,30.60
2019-05-17T15:01:57.297Z,30.60
2019-05-17T15:07:13.152Z,30.60
2019-05-17T15:09:40.708Z,30.60
2019-05-17T15:12:08.286Z,30.50
2019-05-17T15:14:35.674Z,30.30
2019-05-17T15:17:03.919Z,30.40
2019-05-17T15:19:31.303Z,30.40
2019-05-17T15:21:58.812Z,30.40
2019-05-17T15:24:26.317Z,30.10
2019-05-17T15:27:04.973Z,30.20
2019-05-17T15:29:23.031Z,30.20
2019-05-17T15:31:52.120Z,30.20
2019-05-17T15:34:19.895Z,30.40
2019-05-17T15:36:47.462Z,30.20
2019-05-17T15:39:14.901Z,30.20
2019-05-17T15:41:42.326Z,30.40
2019-05-17T15:44:09.899Z,30.50
2019-05-17T15:46:37.340Z,30.60
2019-05-17T15:49:05.673Z,30.70
2019-05-17T15:51:33.208Z,30.40
2019-05-17T15:54:00.585Z,30.30
2019-05-17T15:56:27.971Z,30.40
2019-05-17T15:58:56.203Z,31.10
2019-05-17T16:01:23.603Z,30.50
2019-05-17T16:03:51.254Z,30.50
2019-05-17T16:06:18.738Z,30.40
2019-05-17T16:08:46.211Z,30.40
2019-05-17T16:11:13.609Z,30.50
2019-05-17T16:13:41.126Z,30.50
2019-05-17T16:16:08.583Z,30.50
2019-05-17T16:18:36.071Z,30.70
2019-05-17T16:21:03.627Z,30.60
2019-05-17T16:23:31.113Z,30.60
2019-05-17T16:25:58.545Z,30.70
2019-05-17T16:28:25.995Z,30.80
2019-05-17T16:30:53.448Z,30.60
2019-05-17T16:33:20.960Z,30.40
2019-05-17T16:35:48.553Z,30.00
2019-05-17T16:38:15.938Z,30.40
2019-05-17T16:40:43.310Z,30.50
2019-05-17T16:43:18.039Z,30.50
2019-05-17T16:45:39.970Z,30.30
2019-05-17T16:48:07.319Z,30.40
2019-05-17T16:50:34.806Z,30.40
2019-05-17T16:53:06.095Z,30.70
2019-05-17T16:55:32.876Z,30.70
2019-05-17T16:58:00.619Z,30.70
2019-05-17T17:00:33.702Z,29.20
2019-05-17T17:03:01.138Z,30.90
2019-05-17T17:05:28.661Z,30.90
2019-05-17T17:07:55.986Z,30.90
2019-05-17T17:10:23.522Z,31.00
2019-05-17T17:12:51.948Z,31.00
2019-05-17T17:15:19.761Z,31.00
2019-05-17T17:17:48.300Z,31.00
2019-05-17T17:20:16.485Z,31.60
2019-05-17T17:22:43.985Z,31.70
2019-05-17T17:25:18.164Z,31.90
2019-05-17T17:27:45.775Z,31.20
2019-05-17T17:30:17.673Z,32.00
2019-05-17T17:33:04.921Z,31.30
2019-05-17T17:35:32.363Z,31.50
2019-05-17T17:37:59.741Z,30.60
2019-05-17T17:40:27.204Z,31.60
2019-05-17T17:43:58.474Z,31.60
2019-05-17T17:52:20.341Z,31.90
2019-05-17T17:54:47.762Z,32.10
2019-05-17T17:57:24.464Z,32.40
2019-05-17T18:00:05.289Z,31.90
2019-05-17T18:02:35.918Z,31.20
2019-05-17T18:05:26.459Z,32.70
2019-05-17T18:08:20.540Z,31.40
2019-05-17T18:17:39.602Z,33.20
2019-05-17T18:20:07.587Z,33.30
2019-05-17T18:22:35.073Z,33.50
2019-05-17T18:25:05.367Z,33.10
2019-05-17T18:27:32.934Z,33.30
2019-05-17T18:30:00.430Z,33.50
2019-05-17T18:32:27.953Z,33.50
2019-05-17T18:34:55.297Z,33.50
2019-05-17T18:37:23.269Z,33.60
2019-05-17T18:39:56.262Z,33.60
2019-05-17T18:42:23.677Z,33.80
2019-05-17T18:44:51.146Z,34.60
2019-05-17T18:47:20.203Z,34.10
2019-05-17T18:49:49.708Z,34.20
2019-05-17T18:52:17.405Z,34.20
2019-05-17T18:54:44.893Z,34.30
2019-05-17T18:57:12.439Z,34.30
2019-05-17T18:59:39.974Z,34.60
2019-05-17T19:02:07.531Z,34.40
2019-05-17T19:04:34.915Z,34.60
2019-05-17T19:07:02.395Z,34.80
2019-05-17T19:09:29.903Z,34.80
2019-05-17T19:11:57.423Z,35.60
2019-05-17T19:14:24.977Z,35.00
2019-05-17T19:16:52.504Z,35.10
2019-05-17T19:19:19.977Z,35.20
2019-05-17T19:21:47.515Z,35.40
2019-05-17T19:24:14.994Z,35.60
2019-05-17T19:26:42.398Z,35.70
2019-05-17T19:29:10.286Z,35.70
2019-05-17T19:31:37.892Z,35.90
2019-05-17T19:34:05.515Z,36.10
2019-05-17T19:36:33.067Z,35.90
2019-05-17T19:39:00.591Z,35.90
2019-05-17T19:41:28.192Z,36.10
2019-05-17T19:43:57.552Z,36.20
2019-05-17T19:46:25.076Z,36.30
2019-05-17T19:48:52.611Z,36.40
2019-05-17T19:51:20.502Z,36.50
2019-05-17T19:53:48.676Z,36.60
2019-05-17T19:56:16.283Z,36.60
2019-05-17T20:02:10.021Z,36.90
2019-05-17T20:04:37.527Z,36.60
2019-05-17T20:07:04.990Z,37.10
2019-05-17T20:09:32.406Z,37.00
2019-05-17T20:12:01.269Z,37.30
2019-05-17T20:14:28.673Z,37.30
2019-05-17T20:16:56.562Z,37.30
2019-05-17T20:19:24.245Z,37.60
2019-05-17T20:21:51.963Z,37.60
2019-05-17T20:24:19.430Z,37.60
2019-05-17T20:26:47.594Z,38.00
2019-05-17T20:29:15.027Z,37.90
2019-05-17T20:31:42.758Z,38.10
2019-05-17T20:34:10.317Z,38.10
2019-05-17T20:36:37.801Z,38.20
2019-05-17T20:39:05.559Z,38.30
2019-05-17T20:41:33.056Z,38.30
2019-05-17T20:44:00.655Z,38.40
2019-05-17T20:46:30.601Z,38.50
2019-05-17T20:48:57.730Z,38.70
2019-05-17T20:51:25.250Z,38.80
2019-05-17T20:53:52.601Z,38.90
2019-05-17T20:56:32.305Z,38.90
2019-05-17T20:58:49.399Z,39.20
2019-05-17T21:01:16.843Z,39.10
2019-05-17T21:03:44.417Z,39.10
2019-05-17T21:06:11.919Z,39.30
2019-05-17T21:08:46.212Z,39.30
2019-05-17T21:11:08.624Z,39.40
2019-05-17T21:13:36.085Z,39.40
2019-05-17T21:16:03.717Z,39.50
2019-05-17T21:18:31.165Z,39.60
2019-05-17T21:20:58.771Z,39.60
2019-05-17T21:23:26.378Z,39.60
2019-05-17T21:25:53.806Z,38.80
2019-05-17T21:28:21.184Z,40.00
2019-05-17T21:30:48.673Z,40.10
2019-05-17T21:33:16.110Z,40.20
2019-05-17T21:35:43.511Z,40.30
2019-05-17T21:38:11.213Z,40.30
2019-05-17T21:40:38.571Z,40.50
2019-05-17T21:43:06.058Z,40.50
2019-05-17T21:45:33.530Z,40.60
2019-05-17T21:48:01.047Z,40.70
2019-05-17T21:50:28.467Z,40.80
2019-05-17T21:52:55.964Z,40.90
2019-05-17T21:55:23.461Z,40.90
2019-05-17T21:57:50.844Z,41.00
2019-05-17T22:01:09.492Z,41.00
2019-05-17T22:03:36.823Z,41.20
2019-05-17T22:06:04.245Z,41.20
2019-05-17T22:08:31.630Z,41.30
2019-05-17T22:10:58.972Z,41.60
2019-05-17T22:13:26.433Z,41.40
2019-05-17T22:15:53.892Z,41.50
2019-05-17T22:18:21.362Z,41.50
2019-05-17T22:20:48.744Z,41.70
2019-05-17T22:23:16.173Z,41.80
2019-05-17T22:25:43.560Z,41.80
2019-05-17T22:28:11.077Z,42.00
2019-05-17T22:30:38.535Z,41.90
2019-05-17T22:33:06.799Z,42.10
2019-05-17T22:35:34.301Z,42.30
2019-05-17T22:38:01.773Z,42.30
2019-05-17T22:40:29.246Z,43.00
2019-05-17T22:42:56.698Z,42.40
2019-05-17T22:45:24.084Z,42.50
2019-05-17T22:47:51.437Z,43.10
2019-05-17T22:50:18.798Z,42.50
2019-05-17T22:52:46.125Z,42.50
2019-05-17T22:55:13.641Z,42.50
2019-05-17T22:57:41.123Z,42.60
2019-05-17T23:00:09.067Z,42.60
2019-05-17T23:02:36.620Z,42.60
2019-05-17T23:05:04.145Z,42.70
2019-05-17T23:07:31.578Z,42.70
2019-05-17T23:09:58.958Z,42.70
2019-05-17T23:12:26.326Z,42.70
2019-05-17T23:14:53.778Z,42.80
2019-05-17T23:17:21.227Z,42.90
2019-05-17T23:19:49.531Z,43.00
2019-05-17T23:22:16.950Z,43.00
2019-05-17T23:24:44.457Z,43.10
2019-05-17T23:27:11.811Z,43.10
2019-05-17T23:29:41.199Z,43.20
2019-05-17T23:32:08.660Z,43.20
2019-05-17T23:34:36.120Z,43.30
2019-05-17T23:37:03.567Z,43.40
2019-05-17T23:39:30.911Z,43.40
2019-05-17T23:41:58.263Z,43.50
2019-05-17T23:44:25.603Z,43.60
2019-05-17T23:47:05.984Z,43.60
2019-05-17T23:49:22.267Z,43.60
2019-05-17T23:51:49.715Z,43.70
2019-05-17T23:54:17.190Z,43.80
2019-05-17T23:56:44.670Z,43.80
2019-05-17T23:59:12.022Z,43.90
